logo
App data

Not Dying Today

Not dying today is a 2D side-scrolling action game. In 2030, the world has been taken over by zombies. With fire and blade, bullets and guns, you, captain Aiden, will do anything to protect the last human kind, anything, even turn into a zombie, using zombie power to kill zombies.
Store | Hub | SteamDB
Developer: 9TH.ART Publisher: Forever Entertainment S. A.
Genre: Action, Adventure, Casual, Indie
Languages: English
Tags: Action (39), Indie (25), Violent (25), Gore (25), Casual (23), Adventure (22), Beat 'em up (15), Local Co-Op (8), Zombies (5)
Category: Single-player, Local Multi-Player, Local Co-op, Shared/Split Screen, Steam Achievements, Full controller support, Steam Trading Cards, Steam Cloud
Release date: Jan 13, 2017
Price: $9.99
Score rank: 45% Userscore: 78% Old userscore: 80%
Owners: 0 .. 20,000
Followers: 632
Peak concurrent players yesterday: 2
YouTube stats: 2 views and 0 comments for videos uploaded last week, 1 new videos uploaded yesterday.
Playtime total: 02:50 (average) 02:38 (median)

Steam Spy is still in beta, so expect major bugs.

Owners data:

Access restricted.

This feature is only available to users with special access rights. Sorry.

If you want to proceed, you need to register or log in first and then back Steam Spy on Patreon. Look for Indie or Pro pledge.

Don't forget to use the same email as on Steam Spy!

Audience in 2 weeks:

Access restricted.

This feature is only available to users with special access rights. Sorry.

If you want to proceed, you need to register or log in first and then back Steam Spy on Patreon. Look for Indie or Pro pledge.

Don't forget to use the same email as on Steam Spy!

Peak daily concurrent players:

CCU data courtesy of SteamDB. Used with permission.

Hourly concurrent players:

Daily Twitch stats:

Hourly Twitch stats:

YouTube:

The views data is based on top 50 videos uploaded last week. Actual number of views might be more than the number shown.

The displayed number of videos uploaded yesterday is limited to 50, so if there were more videos uploaded, the number will still show 50.

If the game has commonly used word as its name (like "FEAR" or "Volume") its number of Youtube views might be wrong.

Games similar to this one:

# Game Release date
Price
Score rank
(Userscore / Metascore)
Owners
Players
Playtime (Median)
1 Aaero Apr 11, 2017 $14.9992% (95%)0 .. 20,00016.67%05:28 (03:38)
2 Star Trek : 25th Anniversary May 7, 2015 $9.9990% (94%)0 .. 20,0000%00:00 (00:00)
3 Star Trek: Judgment Rites May 8, 2015 $9.99N/A (N/A)0 .. 20,0000%00:00 (00:00)
4 Adventure in the Tower of Flight Dec 23, 2015 $4.99N/A (N/A)0 .. 20,0000%00:00 (00:00)
5 Knightmare Tower Jun 16, 2014 $3.9983% (92%)0 .. 20,0000%00:00 (00:00)
6 Counter Spell Oct 5, 2015 $9.9983% (92%)0 .. 20,0000%00:00 (00:00)
7 Fractured Soul Feb 5, 2015 $9.99N/A (N/A)0 .. 20,0000%00:00 (00:00)
8 Hyphen Feb 12, 2015 $3.99N/A (N/A)0 .. 20,0000%00:00 (00:00)
9 Conga Master Sep 14, 2016 N/AN/A (N/A)0 .. 20,0000%00:00 (00:00)
10 Spark the Electric Jester Apr 10, 2017 $7.9976% (90%)0 .. 20,0000%00:00 (00:00)
11 Hero of Many Sep 15, 2014 $6.9976% (90%)20,000 .. 50,0000%00:00 (00:00)
12 Neighborhorde Jun 5, 2017 $4.99N/A (N/A)0 .. 20,0000%00:00 (00:00)
13 Smashing The Battle VR Jun 15, 2017 $10.99N/A (N/A)0 .. 20,0000%00:00 (00:00)
14 THE WALL 墙 Jul 17, 2017 $1.9969% (88%)0 .. 20,0007.69%04:10 (01:23)
15 XIIZEAL Jun 5, 2015 $11.99N/A (N/A)0 .. 20,0000%00:00 (00:00)
16 Knight Squad Nov 16, 2015 $14.9967% (87%)50,000 .. 100,0000%00:00 (00:00)
17 Super Rad Raygun Nov 15, 2016 $2.49N/A (N/A/64%)0 .. 20,0000%00:00 (00:00)
18 Asura: Vengeance Expansion Apr 13, 2017 $9.9964% (86%)20,000 .. 50,0000%00:00 (00:00)
19 TITAN SLAYER Apr 27, 2017 $12.9964% (86%)0 .. 20,0000%00:00 (00:00)
20 Vintage Year Jan 2, 2015 $2.99N/A (N/A)20,000 .. 50,0000%00:00 (00:00)
21 Azure Striker Gunvolt Aug 28, 2015 $14.9961% (85%)20,000 .. 50,0000%00:00 (00:00)
22 Nongünz May 19, 2017 $6.9958% (84%)100,000 .. 200,0000%00:00 (00:00)
23 Disney's Chicken Little Feb 24, 2015 $9.9958% (84%)0 .. 20,0000%00:00 (00:00)
24 Ittle Dew 2 Nov 15, 2016 $19.9958% (84%)0 .. 20,0000%00:00 (00:00)
25 Isbarah Feb 25, 2015 $13.99N/A (N/A)20,000 .. 50,0004%00:02 (00:00)
26 Fighties Jul 13, 2015 $4.9956% (83%)0 .. 20,0000%00:00 (00:00)
27 After The End: The Harvest Jun 2, 2017 $4.99N/A (N/A)20,000 .. 50,0000%00:00 (00:00)
28 LocoCycle Feb 14, 2014 $9.9949% (80%)0 .. 20,0000%00:00 (00:00)
29 Klang Sep 22, 2016 $14.9949% (80%/71%)0 .. 20,0000%00:00 (00:00)
30 Airport Madness: World Edition May 28, 2015 $9.9949% (80%)20,000 .. 50,0008.96%03:21 (03:00)
31 Blue Effect VR Feb 8, 2017 $14.9944% (78%)0 .. 20,0000%00:00 (00:00)
32 Dyna Bomb May 13, 2016 $4.99N/A (N/A)0 .. 20,0000%00:00 (00:00)
33 IrreVRsible Feb 17, 2017 $1.99N/A (N/A)0 .. 20,0000%00:00 (00:00)
34 Starchaser: Priestess of the Night Sky Jul 24, 2015 $9.99N/A (N/A)0 .. 20,0000%00:00 (00:00)
35 Zero Reflex : Black Eye Edition Nov 4, 2015 $3.9938% (75%)20,000 .. 50,0000.52%00:14 (00:04)
36 Aeon May 22, 2017 $19.9937% (74%)0 .. 20,0000%00:00 (00:00)
37 Planet of Mubu Apr 1, 2017 $0.59N/A (N/A)20,000 .. 50,0000%00:00 (00:00)
38 BoxesWithGuns Apr 14, 2015 $1.99N/A (N/A)20,000 .. 50,0000%00:00 (00:00)
39 The Girl and the Robot Aug 17, 2016 $9.99N/A (N/A)0 .. 20,0000%00:00 (00:00)
40 ABRACA - Imagic Games Mar 31, 2016 $14.99N/A (N/A)0 .. 20,0000%00:00 (00:00)
41 Toxic Bunny HD Jul 18, 2014 $5.99N/A (N/A)0 .. 20,0000%00:00 (00:00)
42 Spud's Quest Jul 31, 2014 $7.99N/A (N/A)0 .. 20,0000%00:00 (00:00)
43 Demon Peak Jul 7, 2017 $4.9924% (66%)0 .. 20,0000%00:00 (00:00)
44 Phantaruk Aug 16, 2016 $1.24N/A (N/A/53%)20,000 .. 50,0000%00:00 (00:00)
45 Dystopy Feb 28, 2017 FreeN/A (N/A)0 .. 20,0000%00:00 (00:00)
46 BIOS Dec 13, 2016 $14.9923% (65%)0 .. 20,0000%00:00 (00:00)
47 Tank Brawl Apr 20, 2016 $4.99N/A (N/A)0 .. 20,0000%00:00 (00:00)
48 Demon's Crystals Apr 21, 2016 $4.99N/A (N/A)0 .. 20,0000%00:00 (00:00)
49 Disney Alice in Wonderland Mar 2, 2010 $19.9921% (64%/63%)0 .. 20,0000%00:00 (00:00)
50 Pixel-Warfare: Pro Sep 20, 2016 $0.99N/A (N/A)20,000 .. 50,0000%00:00 (00:00)
51 Bombshell Jan 29, 2016 $34.9919% (62%)0 .. 20,0000%00:00 (00:00)
52 Alpha Zylon Dec 19, 2007 $4.9919% (62%)20,000 .. 50,0000%00:00 (00:00)
53 Hybrid Wars Sep 29, 2016 $24.9917% (60%/54%)0 .. 20,0000%00:00 (00:00)
54 Fowl Space Mar 21, 2012 $4.9916% (59%)20,000 .. 50,0000%00:00 (00:00)
55 Shadowcrypt Jul 7, 2014 $4.9915% (58%)0 .. 20,0000%00:00 (00:00)
56 Disney Tangled Nov 19, 2010 $19.99N/A (N/A)0 .. 20,0000%00:00 (00:00)
57 The Curse of Nordic Cove Apr 23, 2015 $0.99N/A (N/A)0 .. 20,0000%00:00 (00:00)
58 Disney•Pixar Cars 2: The Video Game Jun 21, 2011 $19.999% (50%)0 .. 20,0004%01:03 (00:21)
59 #KILLALLZOMBIES Aug 10, 2016 $4.99N/A (N/A)20,000 .. 50,0000%00:00 (00:00)
60 Scooby Doo! & Looney Tunes Cartoon Universe: Adventure Jul 16, 2014 $19.99N/A (N/A)0 .. 20,0000%00:00 (00:00)
61 Blasting Agent: Ultimate Edition Aug 17, 2016 $2.99N/A (N/A)0 .. 20,0000%00:00 (00:00)
62 Plancon: Space Conflict Aug 8, 2016 $6.99N/A (N/A)20,000 .. 50,0001.15%01:20 (00:26)
63 Infinium Strike Jul 14, 2016 $9.99N/A (N/A)0 .. 20,0000%00:00 (00:00)
64 Lost Sea Jul 5, 2016 $14.99N/A (N/A)0 .. 20,0000%00:00 (00:00)
65 Red Goddess: Inner World Aug 31, 2015 $1.99N/A (N/A/53%)0 .. 20,0000%00:00 (00:00)
66 Kick-Ass 2 Aug 15, 2014 $19.99N/A (N/A)0 .. 20,0000%00:00 (00:00)
67 Disney Fairies: Tinker Bell's Adventure Oct 6, 2014 $19.99N/A (N/A)0 .. 20,0000%00:00 (00:00)
68 Masterspace Jun 15, 2015 $7.992% (27%)0 .. 20,0000%00:00 (00:00)
69 Monster Challenge Circus May 15, 2014 $4.99N/A (N/A)0 .. 20,0000%00:00 (00:00)
70 Deer Hunt Legends Jan 7, 2013 $4.99N/A (N/A)0 .. 20,0001.02%00:01 (00:00)

Tags over time:

Access restricted.

This feature is only available to users with special access rights. Sorry.

If you want to proceed, you need to register or log in first and then back Steam Spy on Patreon. Look for Indie or Pro pledge.

Don't forget to use the same email as on Steam Spy!

Owners of this game also own:

Access restricted.

This feature is only available to users with special access rights. Sorry.

If you want to proceed, you need to register or log in first and then back Steam Spy on Patreon. Look for Indie or Pro pledge.

Don't forget to use the same email as on Steam Spy!

Playtime distribution:

Access restricted.

This feature is only available to users with special access rights. Sorry.

If you want to proceed, you need to register or log in first and then back Steam Spy on Patreon. Look for Indie or Pro pledge.

Don't forget to use the same email as on Steam Spy!

Playtime (2 weeks):

Access restricted.

This feature is only available to users with special access rights. Sorry.

If you want to proceed, you need to register or log in first and then back Steam Spy on Patreon. Look for Indie or Pro pledge.

Don't forget to use the same email as on Steam Spy!

User reviews:

Login required.

Please register or log in to see this information.